Time;durP1;ratioP1;P1;durP2;ratioP2;P2;SDS_P1;SDS_P2;PMS_P1;PMS_P2;Temp;Humidity;BMP_temperature;BMP_pressure;BME280_temperature;BME280_humidity;BME280_pressure;Samples;Min_cycle;Max_cycle;Signal;HPM_P1;HPM_P2
2022/11/10 00:00:26;;;;;;;11.60;1.83;;;9.40;99.90;;;;;;5041012;28;20044;-82
2022/11/10 00:03:12;;;;;;;6.65;1.35;;;9.40;99.90;;;;;;5037608;28;20047;-81
2022/11/10 00:05:57;;;;;;;10.25;1.70;;;9.40;99.90;;;;;;5042017;28;20037;-86
2022/11/10 00:08:41;;;;;;;8.60;1.48;;;9.40;99.90;;;;;;5046891;28;20036;-80
2022/11/10 00:11:27;;;;;;;13.15;2.65;;;9.40;99.90;;;;;;5041863;28;20033;-87
2022/11/10 00:17:15;;;;;;;6.95;1.10;;;9.30;99.90;;;;;;5043884;28;20040;-81
2022/11/10 00:20:01;;;;;;;11.65;1.52;;;9.30;99.90;;;;;;5042330;28;20044;-85
2022/11/10 00:22:46;;;;;;;11.57;1.80;;;9.30;99.90;;;;;;5044360;28;20062;-83
2022/11/10 00:25:31;;;;;;;13.07;1.73;;;9.30;99.90;;;;;;5042364;28;20672;-85
2022/11/10 00:28:16;;;;;;;10.30;1.98;;;9.30;99.90;;;;;;5043177;28;20029;-83
2022/11/10 00:31:05;;;;;;;19.30;2.33;;;9.20;99.90;;;;;;5028736;28;20045;-85
2022/11/10 00:33:51;;;;;;;8.60;1.50;;;9.20;99.90;;;;;;5042073;28;20471;-81
2022/11/10 00:36:35;;;;;;;7.22;1.23;;;9.20;99.90;;;;;;5043518;28;20048;-82
2022/11/10 00:39:21;;;;;;;10.18;1.83;;;9.20;99.90;;;;;;5043457;28;20033;-78
2022/11/10 00:42:06;;;;;;;5.43;1.05;;;9.20;99.90;;;;;;5045710;28;20128;-86
2022/11/10 00:44:51;;;;;;;6.88;1.00;;;9.20;99.90;;;;;;5039345;28;20033;-85
2022/11/10 00:47:36;;;;;;;10.45;1.50;;;9.10;99.90;;;;;;5027303;28;20044;-83
2022/11/10 00:50:21;;;;;;;5.47;0.98;;;9.10;99.90;;;;;;5041541;28;20028;-80
2022/11/10 00:53:06;;;;;;;14.93;2.55;;;9.10;99.90;;;;;;5041567;28;20472;-85
2022/11/10 00:55:51;;;;;;;8.93;1.20;;;9.10;99.90;;;;;;5027259;28;20036;-85
2022/11/10 00:58:36;;;;;;;15.90;2.92;;;9.00;99.90;;;;;;5026435;28;20420;-86
2022/11/10 01:01:24;;;;;;;10.98;1.85;;;9.00;99.90;;;;;;5040638;28;20087;-80
2022/11/10 01:04:09;;;;;;;9.77;2.05;;;9.00;99.90;;;;;;5025465;28;20047;-84
2022/11/10 01:06:54;;;;;;;9.63;1.38;;;9.00;99.90;;;;;;5047964;28;20029;-85
2022/11/10 01:09:38;;;;;;;12.30;1.92;;;9.00;99.90;;;;;;5045075;28;20439;-85
2022/11/10 01:12:26;;;;;;;5.82;1.05;;;9.00;99.90;;;;;;5041713;28;20024;-81
2022/11/10 01:15:11;;;;;;;9.88;1.27;;;9.00;99.90;;;;;;5025482;28;20395;-83
2022/11/10 01:17:56;;;;;;;8.77;1.65;;;9.00;99.90;;;;;;5044411;28;20051;-85
2022/11/10 01:20:41;;;;;;;10.43;1.80;;;9.00;99.90;;;;;;5042098;28;20042;-84
2022/11/10 01:23:26;;;;;;;9.18;1.77;;;8.90;99.90;;;;;;5040534;28;20059;-83
2022/11/10 01:26:12;;;;;;;12.38;1.67;;;9.00;99.90;;;;;;5041258;28;20055;-83
2022/11/10 01:28:57;;;;;;;9.65;1.40;;;8.90;99.90;;;;;;5042222;28;20040;-82
2022/11/10 01:31:43;;;;;;;11.90;2.47;;;9.00;99.90;;;;;;5041843;28;20049;-86
2022/11/10 01:34:27;;;;;;;9.23;1.42;;;8.90;99.90;;;;;;5039953;28;20047;-85
2022/11/10 01:37:12;;;;;;;6.43;1.17;;;8.90;99.90;;;;;;5042250;28;20048;-77
2022/11/10 01:39:57;;;;;;;7.03;1.75;;;8.90;99.90;;;;;;5043474;28;20379;-85
2022/11/10 01:42:55;;;;;;;6.55;1.08;;;8.90;99.90;;;;;;5042926;28;20048;-86
2022/11/10 01:45:53;;;;;;;8.38;1.23;;;8.90;99.90;;;;;;5041814;28;20487;-83
2022/11/10 01:48:45;;;;;;;10.85;1.27;;;8.90;99.90;;;;;;5042288;28;20060;-85
2022/11/10 01:51:51;;;;;;;10.18;1.63;;;8.90;99.90;;;;;;5042765;28;20051;-86
2022/11/10 01:54:41;;;;;;;15.80;2.10;;;8.90;99.90;;;;;;5027073;28;20382;-87
2022/11/10 01:57:27;;;;;;;9.95;1.73;;;8.90;99.90;;;;;;5040129;28;20392;-86
2022/11/10 02:00:12;;;;;;;13.50;2.60;;;8.90;99.90;;;;;;5042821;28;20041;-81
2022/11/10 02:03:13;;;;;;;11.88;2.55;;;8.90;99.90;;;;;;5041451;28;20024;-79
2022/11/10 02:05:59;;;;;;;11.48;2.08;;;8.90;99.90;;;;;;5040045;28;20052;-85
2022/11/10 02:08:45;;;;;;;10.57;1.20;;;8.90;99.90;;;;;;5043768;28;20040;-80
2022/11/10 02:11:32;;;;;;;15.13;1.75;;;8.90;99.90;;;;;;5025380;28;20521;-86
2022/11/10 02:14:16;;;;;;;9.98;2.80;;;8.90;99.90;;;;;;5023711;28;20373;-80
2022/11/10 02:17:01;;;;;;;8.18;1.50;;;8.90;99.90;;;;;;5043506;28;20849;-84
2022/11/10 02:19:46;;;;;;;15.38;2.72;;;8.90;99.90;;;;;;5042427;28;20040;-80
2022/11/10 02:22:31;;;;;;;8.38;1.80;;;8.90;99.90;;;;;;5041327;28;20536;-85
2022/11/10 02:25:19;;;;;;;14.85;2.63;;;8.90;99.90;;;;;;5029244;28;20044;-82
2022/11/10 02:28:04;;;;;;;9.50;2.10;;;8.90;99.90;;;;;;5043305;28;20033;-82
2022/11/10 02:30:50;;;;;;;15.00;2.20;;;9.00;99.90;;;;;;5027254;28;20029;-81
2022/11/10 02:33:35;;;;;;;8.98;1.40;;;9.00;99.90;;;;;;5041373;28;20068;-81
2022/11/10 02:36:20;;;;;;;7.32;1.33;;;9.00;99.90;;;;;;5044726;28;20033;-83
2022/11/10 02:39:06;;;;;;;13.00;1.75;;;9.10;99.90;;;;;;5030623;28;20051;-84
2022/11/10 02:41:50;;;;;;;11.73;2.20;;;9.10;99.90;;;;;;5024311;28;20025;-83
2022/11/10 02:44:36;;;;;;;7.43;1.83;;;9.10;99.90;;;;;;5042106;28;20052;-81
2022/11/10 02:47:22;;;;;;;19.40;2.72;;;9.20;99.90;;;;;;5043749;28;20490;-79
2022/11/10 02:50:07;;;;;;;13.05;2.22;;;9.20;99.90;;;;;;5042822;28;20032;-81
2022/11/10 02:52:52;;;;;;;15.10;2.80;;;9.30;99.90;;;;;;5029632;28;20028;-76
2022/11/10 02:55:37;;;;;;;11.15;2.20;;;9.30;99.90;;;;;;5043537;28;20044;-84
2022/11/10 02:58:22;;;;;;;15.88;2.28;;;9.30;99.90;;;;;;5042426;28;20407;-77
2022/11/10 03:01:07;;;;;;;20.92;3.60;;;9.40;99.90;;;;;;5039373;28;20791;-83
2022/11/10 03:03:52;;;;;;;9.75;2.22;;;9.40;99.90;;;;;;5039945;28;20032;-79
2022/11/10 03:06:37;;;;;;;19.85;4.10;;;9.40;99.90;;;;;;5026923;28;20037;-82
2022/11/10 03:09:22;;;;;;;11.10;2.40;;;9.40;99.90;;;;;;5042933;28;20039;-82
2022/11/10 03:12:07;;;;;;;10.05;1.70;;;9.40;99.90;;;;;;5038512;28;20044;-84
2022/11/10 03:14:52;;;;;;;14.88;2.72;;;9.30;99.90;;;;;;5023907;28;20040;-81
2022/11/10 03:17:37;;;;;;;18.80;3.88;;;9.30;99.90;;;;;;5039973;28;20518;-82
2022/11/10 03:20:22;;;;;;;13.18;3.00;;;9.30;99.90;;;;;;5038399;28;20025;-80
2022/11/10 03:23:07;;;;;;;16.48;2.72;;;9.30;99.90;;;;;;5040120;28;20048;-81
2022/11/10 03:25:52;;;;;;;22.05;3.78;;;9.20;99.90;;;;;;5040228;28;20487;-83
2022/11/10 03:28:37;;;;;;;10.98;2.15;;;9.20;99.90;;;;;;5024886;28;20055;-83
2022/11/10 03:31:22;;;;;;;15.20;2.78;;;9.20;99.90;;;;;;5037334;28;20029;-83
2022/11/10 03:34:06;;;;;;;8.57;1.92;;;9.10;99.90;;;;;;5039033;28;20052;-83
2022/11/10 03:36:51;;;;;;;12.18;2.03;;;9.10;99.90;;;;;;5023462;28;20033;-83
2022/11/10 03:39:36;;;;;;;17.42;2.85;;;9.10;99.90;;;;;;5040557;28;20067;-82
2022/11/10 03:42:21;;;;;;;8.80;2.33;;;9.00;99.90;;;;;;5026557;28;20037;-82
2022/11/10 03:45:06;;;;;;;9.07;1.45;;;9.00;99.90;;;;;;5041194;28;20041;-84
2022/11/10 03:47:52;;;;;;;16.88;3.10;;;9.00;99.90;;;;;;5044344;28;20039;-78
2022/11/10 03:50:37;;;;;;;17.55;3.35;;;9.00;99.90;;;;;;5041161;28;20559;-83
2022/11/10 03:53:22;;;;;;;13.32;2.60;;;9.00;99.90;;;;;;5042416;28;20602;-82
2022/11/10 03:56:07;;;;;;;13.80;2.60;;;9.00;99.90;;;;;;5043637;28;20045;-84
2022/11/10 03:58:52;;;;;;;13.15;2.33;;;8.90;99.90;;;;;;5043459;28;20049;-82
2022/11/10 04:01:36;;;;;;;10.70;1.70;;;9.00;99.90;;;;;;5041463;28;20486;-83
2022/11/10 04:10:29;;;;;;;12.73;2.38;;;8.90;99.90;;;;;;5042679;28;20041;-82
2022/11/10 04:16:17;;;;;;;10.00;1.92;;;8.80;99.90;;;;;;5045133;28;20037;-82
2022/11/10 04:19:02;;;;;;;11.68;2.17;;;8.80;99.90;;;;;;5025491;28;20037;-80
2022/11/10 04:21:47;;;;;;;6.78;2.15;;;8.80;99.90;;;;;;5024496;28;20534;-80
2022/11/10 04:24:32;;;;;;;12.35;2.03;;;8.80;99.90;;;;;;5030707;28;20037;-84
2022/11/10 04:27:17;;;;;;;14.13;2.22;;;8.70;99.90;;;;;;5043546;28;20399;-82
2022/11/10 04:30:02;;;;;;;13.23;2.10;;;8.80;99.90;;;;;;5024422;28;20044;-83
2022/11/10 04:32:47;;;;;;;13.95;2.28;;;8.70;99.90;;;;;;5044441;28;20174;-77
2022/11/10 04:35:31;;;;;;;14.10;2.05;;;8.70;99.90;;;;;;5029658;28;20029;-85
2022/11/10 04:38:16;;;;;;;13.32;1.70;;;8.70;99.90;;;;;;5044466;28;20041;-82
2022/11/10 04:41:02;;;;;;;11.93;2.30;;;8.70;99.90;;;;;;5044215;28;20036;-82
2022/11/10 04:43:47;;;;;;;11.90;2.72;;;8.70;99.90;;;;;;5042784;28;20037;-84
2022/11/10 04:46:35;;;;;;;16.92;3.63;;;8.80;99.90;;;;;;5041951;28;20112;-82
2022/11/10 04:49:20;;;;;;;14.02;2.35;;;8.80;99.90;;;;;;5043512;28;21023;-80
2022/11/10 04:52:05;;;;;;;17.73;2.88;;;8.80;99.90;;;;;;5056176;28;20499;-81
2022/11/10 04:54:50;;;;;;;7.18;1.73;;;8.80;99.90;;;;;;5027464;28;20508;-81
2022/11/10 04:57:34;;;;;;;12.50;1.73;;;8.90;99.90;;;;;;5028259;28;20052;-80
2022/11/10 05:00:19;;;;;;;15.00;2.45;;;8.90;99.90;;;;;;5043521;28;20051;-81
2022/11/10 05:03:07;;;;;;;11.75;1.75;;;8.90;99.90;;;;;;5041630;28;20582;-85
2022/11/10 05:05:52;;;;;;;9.05;2.17;;;8.90;99.90;;;;;;5028761;28;20479;-83
2022/11/10 05:08:39;;;;;;;11.55;2.50;;;8.90;99.90;;;;;;5044083;28;20515;-84
2022/11/10 05:11:23;;;;;;;11.35;2.10;;;8.90;99.90;;;;;;5027421;28;20035;-84
2022/11/10 05:14:08;;;;;;;10.40;2.22;;;8.90;99.90;;;;;;5043603;28;20395;-87
2022/11/10 05:16:53;;;;;;;11.00;1.88;;;8.90;99.90;;;;;;5044926;28;20056;-83
2022/11/10 05:19:38;;;;;;;9.98;1.88;;;8.90;99.90;;;;;;5047242;28;20049;-85
2022/11/10 05:22:23;;;;;;;10.98;2.05;;;8.90;99.90;;;;;;5043548;28;20036;-79
2022/11/10 05:25:08;;;;;;;12.38;2.03;;;8.90;99.90;;;;;;5042539;28;20033;-84
2022/11/10 05:27:53;;;;;;;11.25;2.30;;;8.80;99.90;;;;;;5044915;28;20025;-79
2022/11/10 05:30:39;;;;;;;9.65;1.80;;;8.90;99.90;;;;;;5042616;28;20036;-82
2022/11/10 05:33:24;;;;;;;11.18;1.95;;;8.90;99.90;;;;;;5028856;28;20033;-85
2022/11/10 05:36:09;;;;;;;12.30;2.03;;;8.90;99.90;;;;;;5028367;28;20586;-81
2022/11/10 05:38:54;;;;;;;18.00;2.28;;;8.90;99.90;;;;;;5043509;28;20036;-80
2022/11/10 05:41:40;;;;;;;21.08;4.05;;;8.90;99.90;;;;;;5025898;28;20495;-85
2022/11/10 05:44:25;;;;;;;15.35;3.28;;;8.90;99.90;;;;;;5028153;28;20471;-81
2022/11/10 05:47:10;;;;;;;15.63;1.90;;;8.80;99.90;;;;;;5025784;28;20032;-86
2022/11/10 05:49:55;;;;;;;9.00;1.65;;;8.80;99.90;;;;;;5042585;28;20032;-82
2022/11/10 05:52:48;;;;;;;7.70;1.58;;;8.80;99.90;;;;;;5041740;28;20037;-85
2022/11/10 05:55:33;;;;;;;9.13;1.45;;;8.80;99.90;;;;;;5044708;28;20471;-82
2022/11/10 05:58:17;;;;;;;10.90;2.00;;;8.80;99.90;;;;;;5044181;28;20064;-77
2022/11/10 06:01:03;;;;;;;14.88;2.08;;;8.70;99.90;;;;;;5024179;28;20324;-83
2022/11/10 06:03:47;;;;;;;8.05;1.75;;;8.70;99.90;;;;;;5038967;28;20047;-78
2022/11/10 06:06:32;;;;;;;7.57;1.55;;;8.70;99.90;;;;;;5043007;28;20043;-84
2022/11/10 06:09:17;;;;;;;10.70;1.70;;;8.70;99.90;;;;;;5045249;28;20041;-80
2022/11/10 06:12:02;;;;;;;7.13;1.58;;;8.70;99.90;;;;;;5040031;28;20044;-84
2022/11/10 06:14:47;;;;;;;11.20;1.40;;;8.70;99.90;;;;;;5057534;28;20997;-81
2022/11/10 06:17:31;;;;;;;10.88;1.45;;;8.60;99.90;;;;;;5041449;28;20035;-85
2022/11/10 06:20:17;;;;;;;10.50;2.08;;;8.60;99.90;;;;;;5023741;28;20045;-79
2022/11/10 06:23:05;;;;;;;15.75;2.58;;;8.60;99.90;;;;;;5039549;28;20732;-77
2022/11/10 06:25:50;;;;;;;11.40;1.65;;;8.60;99.90;;;;;;5026279;28;20033;-84
2022/11/10 06:28:34;;;;;;;9.52;1.58;;;8.60;99.90;;;;;;5031993;28;20481;-84
2022/11/10 06:31:19;;;;;;;12.98;1.83;;;8.60;99.90;;;;;;5042564;28;20041;-78
2022/11/10 06:34:04;;;;;;;13.73;2.13;;;8.60;99.90;;;;;;5040799;28;20048;-85
2022/11/10 06:36:49;;;;;;;10.80;1.88;;;8.60;99.90;;;;;;5027449;28;20511;-82
2022/11/10 06:39:33;;;;;;;9.02;1.42;;;8.60;99.90;;;;;;5041181;28;20037;-86
2022/11/10 06:42:18;;;;;;;10.93;1.60;;;8.60;99.90;;;;;;5038621;28;20047;-79
2022/11/10 06:45:04;;;;;;;14.90;2.17;;;8.60;99.90;;;;;;5039798;28;20039;-85
2022/11/10 06:47:57;;;;;;;29.75;13.15;;;8.50;99.90;;;;;;5038496;28;20045;-83
2022/11/10 06:50:42;;;;;;;15.60;3.38;;;8.60;99.90;;;;;;5037627;28;20051;-84
2022/11/10 06:53:27;;;;;;;11.38;2.70;;;8.60;99.90;;;;;;5040076;28;20021;-85
2022/11/10 06:56:12;;;;;;;10.32;1.85;;;8.60;99.90;;;;;;5024982;28;20059;-85
2022/11/10 06:58:57;;;;;;;12.23;2.08;;;8.60;99.90;;;;;;5038566;28;20045;-85
2022/11/10 07:01:41;;;;;;;17.85;2.75;;;8.60;99.90;;;;;;5037390;28;20040;-80
2022/11/10 07:04:27;;;;;;;12.00;1.92;;;8.60;99.90;;;;;;5024081;28;20230;-80
2022/11/10 07:07:13;;;;;;;10.70;1.63;;;8.60;99.90;;;;;;5039216;28;20033;-86
2022/11/10 07:09:58;;;;;;;18.80;2.30;;;8.60;99.90;;;;;;5038784;28;20349;-84
2022/11/10 07:12:43;;;;;;;8.88;1.48;;;8.60;99.90;;;;;;5045731;28;20040;-87
2022/11/10 07:15:29;;;;;;;9.63;1.90;;;8.70;99.90;;;;;;5045713;28;20040;-86
2022/11/10 07:18:14;;;;;;;14.95;3.42;;;8.70;99.90;;;;;;5044674;28;20036;-87
2022/11/10 07:21:02;;;;;;;15.25;2.88;;;8.70;99.90;;;;;;5043299;28;20036;-83
2022/11/10 07:23:47;;;;;;;14.85;2.08;;;8.70;99.90;;;;;;5042352;28;20661;-82
2022/11/10 07:26:31;;;;;;;9.02;1.67;;;8.70;99.90;;;;;;5043527;28;20050;-84
2022/11/10 07:29:16;;;;;;;14.13;3.40;;;8.70;99.90;;;;;;5030616;28;20609;-89
2022/11/10 07:32:02;;;;;;;12.18;2.63;;;8.80;99.90;;;;;;5044770;28;21165;-84
2022/11/10 07:34:46;;;;;;;13.48;2.20;;;8.80;99.90;;;;;;5033258;28;20033;-83
2022/11/10 07:37:31;;;;;;;11.68;1.65;;;8.80;99.90;;;;;;5046253;28;20044;-89
2022/11/10 07:40:16;;;;;;;14.18;2.47;;;8.90;99.90;;;;;;5045625;28;20028;-80
2022/11/10 07:43:01;;;;;;;9.73;1.17;;;8.90;99.90;;;;;;5042780;28;20029;-83
2022/11/10 07:45:47;;;;;;;8.40;1.30;;;9.00;99.90;;;;;;5045634;28;20045;-86
2022/11/10 07:48:32;;;;;;;18.17;2.22;;;9.00;99.90;;;;;;5045174;28;20048;-84
2022/11/10 07:51:17;;;;;;;14.25;2.60;;;9.10;99.90;;;;;;5031953;28;20064;-81
2022/11/10 07:54:02;;;;;;;13.50;2.30;;;9.10;99.90;;;;;;5044028;28;20036;-87
2022/11/10 07:56:47;;;;;;;18.10;3.88;;;9.20;99.90;;;;;;5045110;28;20488;-82
2022/11/10 07:59:32;;;;;;;12.30;1.92;;;9.20;99.90;;;;;;5023497;28;20063;-86
2022/11/10 08:02:16;;;;;;;12.18;1.73;;;9.30;99.90;;;;;;5037361;28;20036;-86
2022/11/10 08:05:01;;;;;;;9.55;1.70;;;9.40;99.90;;;;;;5024239;28;20491;-86
2022/11/10 08:07:46;;;;;;;23.80;5.32;;;9.40;99.90;;;;;;5037961;28;20085;-78
2022/11/10 08:10:32;;;;;;;13.98;3.38;;;9.60;99.90;;;;;;5027907;28;20033;-78
2022/11/10 08:13:17;;;;;;;14.77;2.75;;;9.60;99.90;;;;;;5027736;28;20032;-81
2022/11/10 08:16:02;;;;;;;17.40;4.55;;;9.70;99.90;;;;;;5037550;28;20041;-80
2022/11/10 08:18:47;;;;;;;9.30;2.50;;;9.80;99.90;;;;;;5040828;28;20064;-80
2022/11/10 08:21:32;;;;;;;13.95;3.45;;;9.80;99.90;;;;;;5038581;28;20033;-84
2022/11/10 08:24:17;;;;;;;16.25;4.22;;;9.90;99.90;;;;;;5040195;28;20028;-81
2022/11/10 08:27:02;;;;;;;15.98;3.58;;;9.90;99.90;;;;;;5040611;28;20041;-80
2022/11/10 08:29:47;;;;;;;16.10;3.15;;;9.90;99.90;;;;;;5031566;28;20420;-85
2022/11/10 08:32:32;;;;;;;12.40;2.83;;;10.00;99.90;;;;;;5026114;28;20047;-79
2022/11/10 08:35:16;;;;;;;15.88;2.58;;;10.10;99.90;;;;;;5025220;28;20044;-82
2022/11/10 08:38:06;;;;;;;14.45;3.22;;;10.10;99.90;;;;;;5045712;28;20048;-82
2022/11/10 08:40:51;;;;;;;20.23;4.07;;;10.20;99.90;;;;;;5042818;28;20037;-80
2022/11/10 08:43:36;;;;;;;17.80;2.90;;;10.30;99.90;;;;;;5043477;28;20052;-83
2022/11/10 08:46:21;;;;;;;14.18;3.28;;;10.40;99.90;;;;;;5043413;28;20040;-83
2022/11/10 08:49:06;;;;;;;17.75;3.25;;;10.50;99.90;;;;;;5040271;28;20036;-84
2022/11/10 08:51:50;;;;;;;8.13;1.55;;;10.60;99.90;;;;;;5040879;28;20032;-82
2022/11/10 08:54:35;;;;;;;16.98;2.72;;;10.70;99.90;;;;;;5041721;28;20033;-83
2022/11/10 08:57:20;;;;;;;15.23;2.80;;;10.80;99.90;;;;;;5041316;28;20049;-81
2022/11/10 09:00:06;;;;;;;19.55;3.83;;;10.90;99.90;;;;;;5032912;28;20099;-79
2022/11/10 09:02:55;;;;;;;11.05;3.00;;;11.00;99.90;;;;;;5035147;28;20037;-82
2022/11/10 09:05:40;;;;;;;17.15;3.17;;;11.00;99.90;;;;;;5022432;28;20408;-87
2022/11/10 09:08:25;;;;;;;13.50;2.53;;;11.10;99.90;;;;;;5038393;28;20112;-78
2022/11/10 09:11:11;;;;;;;15.52;3.28;;;11.20;99.90;;;;;;5034926;28;20491;-82
2022/11/10 09:13:58;;;;;;;16.05;2.95;;;11.20;99.90;;;;;;5038907;28;20037;-82
2022/11/10 09:16:44;;;;;;;16.38;2.53;;;11.20;99.90;;;;;;5037457;28;20025;-84
2022/11/10 09:19:31;;;;;;;16.40;2.60;;;11.20;99.90;;;;;;5041163;28;20036;-81
2022/11/10 09:22:16;;;;;;;18.83;2.33;;;11.30;99.90;;;;;;5023449;28;20036;-84
2022/11/10 09:25:01;;;;;;;15.93;2.83;;;11.40;99.90;;;;;;5038376;28;20025;-81
2022/11/10 09:27:46;;;;;;;12.60;1.60;;;11.40;99.90;;;;;;5037283;28;20045;-82
2022/11/10 09:30:31;;;;;;;10.60;2.05;;;11.50;99.90;;;;;;5037404;28;20036;-76
2022/11/10 09:33:17;;;;;;;7.57;1.35;;;11.50;99.90;;;;;;5025220;28;20044;-81
2022/11/10 09:36:02;;;;;;;12.90;2.97;;;11.60;99.90;;;;;;5034883;28;20041;-77
2022/11/10 09:38:47;;;;;;;13.23;2.60;;;11.70;99.90;;;;;;5034752;28;20041;-80
2022/11/10 09:41:32;;;;;;;10.82;2.10;;;11.90;99.90;;;;;;5038852;28;20403;-80
2022/11/10 09:44:32;;;;;;;16.00;2.38;;;12.00;99.90;;;;;;5041079;28;20036;-81
2022/11/10 09:47:23;;;;;;;9.45;1.75;;;12.20;99.90;;;;;;5039399;28;20044;-82
2022/11/10 09:50:17;;;;;;;19.05;3.67;;;12.40;99.90;;;;;;5040383;28;20035;-81
2022/11/10 09:53:03;;;;;;;11.32;2.30;;;12.70;99.90;;;;;;5038789;28;20029;-81
2022/11/10 09:56:01;;;;;;;14.88;2.97;;;12.90;99.90;;;;;;5042118;28;20045;-81
2022/11/10 09:58:47;;;;;;;9.07;1.85;;;13.30;99.90;;;;;;5041520;28;20689;-83
2022/11/10 10:01:45;;;;;;;12.65;2.08;;;13.60;99.90;;;;;;5041746;28;20404;-82
2022/11/10 10:05:15;;;;;;;14.75;1.70;;;13.80;99.90;;;;;;5024916;28;20047;-81
2022/11/10 10:08:06;;;;;;;12.85;1.70;;;14.00;99.90;;;;;;5018788;28;20045;-77
2022/11/10 10:11:05;;;;;;;7.90;1.17;;;14.00;99.90;;;;;;5040539;28;20048;-79
2022/11/10 10:13:59;;;;;;;14.00;2.38;;;14.20;99.90;;;;;;5039425;28;20048;-82
2022/11/10 10:17:13;;;;;;;10.57;1.48;;;14.50;99.90;;;;;;5043118;28;20037;-82
2022/11/10 10:20:22;;;;;;;7.93;1.42;;;14.70;99.90;;;;;;5042886;28;20049;-79
2022/11/10 10:23:15;;;;;;;11.15;1.15;;;15.10;99.90;;;;;;5024583;28;20044;-76
2022/11/10 10:26:00;;;;;;;7.63;1.38;;;15.40;99.90;;;;;;5042800;28;20037;-81
2022/11/10 10:28:47;;;;;;;5.38;1.40;;;15.60;99.90;;;;;;5042170;28;20013;-81
2022/11/10 10:31:42;;;;;;;7.57;0.75;;;15.70;99.90;;;;;;5040707;28;20407;-77
2022/11/10 10:34:29;;;;;;;15.55;2.55;;;15.80;99.90;;;;;;5040036;28;20032;-80
2022/11/10 10:37:38;;;;;;;11.15;1.63;;;15.80;99.90;;;;;;5040461;28;20470;-79
2022/11/10 10:40:23;;;;;;;10.45;2.10;;;15.60;99.90;;;;;;5024950;28;20064;-81
2022/11/10 10:43:08;;;;;;;9.88;1.20;;;15.30;99.90;;;;;;5024888;28;20029;-78
2022/11/10 10:46:12;;;;;;;10.27;1.38;;;15.00;99.90;;;;;;5041982;28;20033;-78
2022/11/10 10:49:21;;;;;;;12.30;1.48;;;14.80;99.90;;;;;;5027640;28;20043;-83
2022/11/10 10:52:13;;;;;;;11.77;1.20;;;14.60;99.90;;;;;;5040658;28;20051;-80
2022/11/10 10:55:00;;;;;;;14.40;1.55;;;14.40;99.90;;;;;;5039996;28;20044;-80
2022/11/10 10:57:57;;;;;;;7.95;0.93;;;14.30;99.90;;;;;;5045539;28;20071;-81
2022/11/10 11:00:44;;;;;;;11.60;1.42;;;14.20;99.90;;;;;;5040347;28;20060;-81
2022/11/10 11:03:37;;;;;;;9.55;1.33;;;14.20;99.90;;;;;;5042286;28;20028;-78
2022/11/10 11:06:26;;;;;;;12.40;1.65;;;14.30;99.90;;;;;;5044800;28;20033;-79
2022/11/10 11:09:25;;;;;;;14.88;1.77;;;14.30;99.90;;;;;;5043751;28;20495;-80
2022/11/10 11:12:19;;;;;;;9.07;1.08;;;14.30;99.90;;;;;;5037809;28;20048;-76
2022/11/10 11:15:29;;;;;;;10.98;1.55;;;14.40;99.90;;;;;;5040242;28;20048;-82
2022/11/10 11:18:16;;;;;;;11.85;1.15;;;14.60;99.90;;;;;;5041385;28;20041;-82
2022/11/10 11:21:40;;;;;;;10.35;1.35;;;14.70;99.90;;;;;;5040748;28;20045;-76
2022/11/10 11:24:49;;;;;;;6.15;1.08;;;14.80;99.90;;;;;;5041316;28;20044;-79
2022/11/10 11:27:49;;;;;;;9.55;1.58;;;14.80;99.90;;;;;;5024616;28;20064;-75
2022/11/10 11:30:51;;;;;;;11.82;1.48;;;14.90;99.90;;;;;;5039355;28;20056;-77
2022/11/10 11:33:49;;;;;;;15.60;1.70;;;14.90;99.90;;;;;;5036833;28;20041;-77
2022/11/10 11:36:34;;;;;;;10.55;1.70;;;14.80;99.90;;;;;;5042167;28;20120;-78
2022/11/10 11:39:54;;;;;;;14.55;2.40;;;14.70;99.90;;;;;;5041723;28;20037;-80
2022/11/10 11:43:05;;;;;;;8.05;1.40;;;14.60;99.90;;;;;;5040991;28;20052;-80
2022/11/10 11:46:13;;;;;;;9.75;1.42;;;14.60;99.90;;;;;;5040669;28;20747;-80
2022/11/10 11:49:19;;;;;;;11.65;1.65;;;14.60;99.90;;;;;;5040440;28;20029;-79
2022/11/10 11:52:35;;;;;;;13.10;1.20;;;14.60;99.90;;;;;;5038466;28;20025;-78
2022/11/10 11:55:35;;;;;;;10.57;1.35;;;14.60;99.90;;;;;;5038875;28;20041;-78
2022/11/10 11:58:31;;;;;;;9.27;0.95;;;14.50;99.90;;;;;;5040256;28;20527;-79
2022/11/10 12:01:47;;;;;;;13.63;1.70;;;14.50;99.90;;;;;;5027374;28;20252;-78
2022/11/10 12:04:51;;;;;;;8.32;2.08;;;14.60;99.90;;;;;;5042077;28;20049;-80
2022/11/10 12:08:02;;;;;;;14.13;1.50;;;14.70;99.90;;;;;;5040519;28;20052;-81
2022/11/10 12:10:47;;;;;;;6.07;1.40;;;14.80;99.90;;;;;;5022503;28;20048;-77
2022/11/10 12:13:59;;;;;;;18.83;2.90;;;14.90;99.90;;;;;;5038702;28;20052;-81
2022/11/10 12:16:57;;;;;;;12.10;2.33;;;15.00;99.90;;;;;;5026689;28;20048;-87
2022/11/10 12:20:04;;;;;;;7.25;1.33;;;15.00;99.90;;;;;;5051984;28;20068;-81
2022/11/10 12:23:17;;;;;;;8.25;1.10;;;15.00;99.90;;;;;;5047283;28;20040;-77
2022/11/10 12:26:29;;;;;;;7.82;1.20;;;15.00;99.90;;;;;;5043126;28;20438;-76
2022/11/10 12:29:20;;;;;;;9.90;2.25;;;15.10;99.90;;;;;;5041597;28;21266;-79
2022/11/10 12:32:32;;;;;;;8.68;0.80;;;15.20;99.90;;;;;;5041225;28;20029;-80
2022/11/10 12:35:31;;;;;;;11.38;1.35;;;15.30;99.90;;;;;;5040746;28;20041;-80
2022/11/10 12:38:22;;;;;;;4.72;0.88;;;15.40;99.90;;;;;;5027811;28;20045;-79
2022/11/10 12:41:12;;;;;;;7.88;0.93;;;15.40;99.90;;;;;;5040880;28;20037;-80
2022/11/10 12:44:09;;;;;;;10.43;1.15;;;15.40;99.90;;;;;;5022548;28;20037;-76
2022/11/10 12:46:59;;;;;;;11.05;1.42;;;15.50;99.90;;;;;;5025924;28;20037;-80
2022/11/10 12:50:20;;;;;;;9.13;1.67;;;15.40;99.90;;;;;;5030626;28;20048;-80
2022/11/10 12:53:25;;;;;;;6.45;1.38;;;15.50;99.90;;;;;;5035995;28;20496;-78
2022/11/10 12:56:26;;;;;;;10.93;2.10;;;15.40;99.90;;;;;;5027074;28;20597;-82
2022/11/10 12:59:19;;;;;;;11.73;1.60;;;15.30;99.90;;;;;;5040450;28;20041;-80
2022/11/10 13:02:30;;;;;;;8.95;1.23;;;15.30;99.90;;;;;;5039287;28;20544;-80
2022/11/10 13:05:24;;;;;;;6.43;1.05;;;15.20;99.90;;;;;;5039931;28;20059;-79
2022/11/10 13:08:35;;;;;;;11.40;0.85;;;15.20;99.90;;;;;;5040048;28;20036;-80
2022/11/10 13:11:27;;;;;;;10.80;1.33;;;15.20;99.90;;;;;;5040122;28;20051;-80
2022/11/10 13:14:27;;;;;;;6.90;1.25;;;15.20;99.90;;;;;;5038672;28;21248;-81
2022/11/10 13:17:38;;;;;;;4.68;0.57;;;15.30;99.90;;;;;;5041801;28;20395;-88
2022/11/10 13:20:38;;;;;;;6.53;1.17;;;15.40;99.90;;;;;;5040485;28;20045;-80
2022/11/10 13:23:32;;;;;;;8.25;1.50;;;15.40;99.90;;;;;;5040497;28;20044;-83
2022/11/10 13:26:39;;;;;;;9.68;1.52;;;15.50;99.90;;;;;;5048878;28;20048;-84
2022/11/10 13:29:42;;;;;;;15.15;3.20;;;15.60;99.90;;;;;;5046568;28;20490;-83
2022/11/10 13:32:29;;;;;;;;;;;15.60;99.90;;;;;;5043458;28;20040;-82
2022/11/10 13:35:29;;;;;;;10.32;1.52;;;15.60;99.90;;;;;;5043814;28;19916;-81
2022/11/10 13:38:43;;;;;;;7.32;0.80;;;15.60;99.90;;;;;;5038019;28;20045;-80
2022/11/10 13:41:31;;;;;;;10.68;0.70;;;15.60;99.90;;;;;;5037871;28;20029;-79
2022/11/10 13:44:25;;;;;;;8.07;0.82;;;15.60;99.90;;;;;;5037350;28;20048;-80
2022/11/10 13:47:33;;;;;;;7.50;1.73;;;15.50;99.90;;;;;;5026420;28;20536;-81
2022/11/10 13:50:51;;;;;;;11.55;1.25;;;15.40;99.90;;;;;;5019456;28;20124;-78
2022/11/10 13:53:54;;;;;;;8.10;1.63;;;15.30;99.90;;;;;;5028288;28;20033;-78
2022/11/10 13:56:46;;;;;;;6.88;1.15;;;15.20;99.90;;;;;;5037658;28;20480;-77
2022/11/10 13:59:41;;;;;;;9.05;1.23;;;15.10;99.90;;;;;;5039452;28;20419;-78
2022/11/10 14:02:35;;;;;;;4.50;1.15;;;15.10;99.90;;;;;;5039270;28;20044;-78
2022/11/10 14:05:37;;;;;;;9.48;1.00;;;15.10;99.90;;;;;;5027145;28;20037;-78
2022/11/10 14:08:27;;;;;;;10.43;1.00;;;15.00;99.90;;;;;;5025472;28;20060;-78
2022/11/10 14:11:37;;;;;;;4.88;0.65;;;14.90;99.90;;;;;;5037766;28;20037;-78
2022/11/10 14:14:42;;;;;;;4.28;0.60;;;14.90;99.90;;;;;;5023533;28;20120;-79
2022/11/10 14:17:33;;;;;;;7.68;0.95;;;14.80;99.90;;;;;;5042543;28;20452;-80
2022/11/10 14:20:41;;;;;;;6.63;0.73;;;14.80;99.90;;;;;;5038609;28;20033;-81
2022/11/10 14:23:46;;;;;;;8.13;1.30;;;14.70;99.90;;;;;;5026288;28;21158;-78
2022/11/10 14:26:37;;;;;;;6.68;0.90;;;14.70;99.90;;;;;;5027864;28;20037;-82
2022/11/10 14:29:30;;;;;;;6.18;1.08;;;14.60;99.90;;;;;;5042197;28;20048;-82
2022/11/10 14:32:17;;;;;;;;;;;14.60;99.90;;;;;;5037359;28;20064;-82
2022/11/10 14:35:02;;;;;;;10.35;0.98;;;14.50;99.90;;;;;;5039395;28;20375;-80
2022/11/10 14:37:48;;;;;;;9.68;0.77;;;14.50;99.90;;;;;;5040237;28;20041;-80
2022/11/10 14:40:33;;;;;;;7.13;0.90;;;14.40;99.90;;;;;;5037302;28;20855;-80
2022/11/10 14:43:28;;;;;;;6.95;0.93;;;14.40;99.90;;;;;;5035538;28;20502;-77
2022/11/10 14:46:14;;;;;;;3.70;0.50;;;14.40;99.90;;;;;;5036290;28;20041;-79
2022/11/10 14:49:00;;;;;;;6.93;0.93;;;14.40;99.90;;;;;;5038016;28;20021;-80
2022/11/10 14:52:02;;;;;;;5.97;1.30;;;14.30;99.90;;;;;;5031844;28;20845;-89
2022/11/10 14:55:09;;;;;;;10.38;2.30;;;14.30;99.90;;;;;;5019856;28;20059;-85